sensor_id;sensor_type;location;lat;lon;timestamp;P1;durP1;ratioP1;P2;durP2;ratioP2
19867;SDS011;10096;51.112;6.776;2023-06-24T00:00:45;10.48;;;8.65;;
19867;SDS011;10096;51.112;6.776;2023-06-24T00:03:13;10.27;;;8.75;;
19867;SDS011;10096;51.112;6.776;2023-06-24T00:05:42;10.05;;;7.60;;
19867;SDS011;10096;51.112;6.776;2023-06-24T00:08:14;8.82;;;7.93;;
19867;SDS011;10096;51.112;6.776;2023-06-24T00:10:44;9.00;;;8.10;;
19867;SDS011;10096;51.112;6.776;2023-06-24T00:13:12;10.02;;;7.82;;
19867;SDS011;10096;51.112;6.776;2023-06-24T00:15:41;9.35;;;8.18;;
19867;SDS011;10096;51.112;6.776;2023-06-24T00:18:11;7.88;;;7.10;;
19867;SDS011;10096;51.112;6.776;2023-06-24T00:20:40;7.85;;;7.05;;
19867;SDS011;10096;51.112;6.776;2023-06-24T00:23:08;8.23;;;7.43;;
19867;SDS011;10096;51.112;6.776;2023-06-24T00:25:35;8.20;;;7.40;;
19867;SDS011;10096;51.112;6.776;2023-06-24T00:28:02;9.32;;;7.80;;
19867;SDS011;10096;51.112;6.776;2023-06-24T00:30:30;9.95;;;7.82;;
19867;SDS011;10096;51.112;6.776;2023-06-24T00:32:57;10.07;;;8.10;;
19867;SDS011;10096;51.112;6.776;2023-06-24T00:35:25;12.48;;;9.70;;
19867;SDS011;10096;51.112;6.776;2023-06-24T00:37:53;10.88;;;9.38;;
19867;SDS011;10096;51.112;6.776;2023-06-24T00:40:23;11.07;;;9.10;;
19867;SDS011;10096;51.112;6.776;2023-06-24T00:42:50;9.30;;;8.50;;
19867;SDS011;10096;51.112;6.776;2023-06-24T00:45:18;10.88;;;8.45;;
19867;SDS011;10096;51.112;6.776;2023-06-24T00:47:46;11.30;;;8.48;;
19867;SDS011;10096;51.112;6.776;2023-06-24T00:50:14;10.98;;;8.18;;
19867;SDS011;10096;51.112;6.776;2023-06-24T00:52:42;8.75;;;7.85;;
19867;SDS011;10096;51.112;6.776;2023-06-24T00:55:11;9.38;;;8.25;;
19867;SDS011;10096;51.112;6.776;2023-06-24T00:57:39;11.98;;;8.88;;
19867;SDS011;10096;51.112;6.776;2023-06-24T01:00:07;12.13;;;8.57;;
19867;SDS011;10096;51.112;6.776;2023-06-24T01:02:39;12.70;;;9.05;;
19867;SDS011;10096;51.112;6.776;2023-06-24T01:05:07;11.02;;;9.32;;
19867;SDS011;10096;51.112;6.776;2023-06-24T01:07:36;12.70;;;9.95;;
19867;SDS011;10096;51.112;6.776;2023-06-24T01:10:05;9.77;;;8.65;;
19867;SDS011;10096;51.112;6.776;2023-06-24T01:12:35;15.20;;;9.50;;
19867;SDS011;10096;51.112;6.776;2023-06-24T01:15:04;11.40;;;10.20;;
19867;SDS011;10096;51.112;6.776;2023-06-24T01:17:35;12.32;;;11.02;;
19867;SDS011;10096;51.112;6.776;2023-06-24T01:20:06;12.27;;;11.18;;
19867;SDS011;10096;51.112;6.776;2023-06-24T01:23:02;11.73;;;10.63;;
19867;SDS011;10096;51.112;6.776;2023-06-24T01:25:48;13.98;;;10.85;;
19867;SDS011;10096;51.112;6.776;2023-06-24T01:28:46;13.05;;;11.70;;
19867;SDS011;10096;51.112;6.776;2023-06-24T01:31:35;13.65;;;12.25;;
19867;SDS011;10096;51.112;6.776;2023-06-24T01:34:10;14.13;;;12.63;;
19867;SDS011;10096;51.112;6.776;2023-06-24T01:36:55;12.77;;;11.48;;
19867;SDS011;10096;51.112;6.776;2023-06-24T01:39:29;14.35;;;11.90;;
19867;SDS011;10096;51.112;6.776;2023-06-24T01:42:03;12.63;;;11.40;;
19867;SDS011;10096;51.112;6.776;2023-06-24T01:44:34;12.90;;;11.45;;
19867;SDS011;10096;51.112;6.776;2023-06-24T01:47:06;13.70;;;10.00;;
19867;SDS011;10096;51.112;6.776;2023-06-24T01:49:35;11.55;;;9.57;;
19867;SDS011;10096;51.112;6.776;2023-06-24T01:52:09;12.65;;;11.32;;
19867;SDS011;10096;51.112;6.776;2023-06-24T01:54:38;12.25;;;10.32;;
19867;SDS011;10096;51.112;6.776;2023-06-24T01:57:08;12.68;;;11.27;;
19867;SDS011;10096;51.112;6.776;2023-06-24T01:59:39;13.70;;;10.70;;
19867;SDS011;10096;51.112;6.776;2023-06-24T02:02:11;11.85;;;10.38;;
19867;SDS011;10096;51.112;6.776;2023-06-24T02:04:45;11.20;;;10.05;;
19867;SDS011;10096;51.112;6.776;2023-06-24T02:07:13;11.35;;;10.15;;
19867;SDS011;10096;51.112;6.776;2023-06-24T02:09:48;13.63;;;10.90;;
19867;SDS011;10096;51.112;6.776;2023-06-24T02:12:17;11.15;;;10.05;;
19867;SDS011;10096;51.112;6.776;2023-06-24T02:14:46;11.85;;;10.35;;
19867;SDS011;10096;51.112;6.776;2023-06-24T02:17:16;12.15;;;9.75;;
19867;SDS011;10096;51.112;6.776;2023-06-24T02:19:45;11.82;;;10.63;;
19867;SDS011;10096;51.112;6.776;2023-06-24T02:22:14;10.85;;;9.75;;
19867;SDS011;10096;51.112;6.776;2023-06-24T02:24:42;10.63;;;9.57;;
19867;SDS011;10096;51.112;6.776;2023-06-24T02:27:10;12.98;;;10.13;;
19867;SDS011;10096;51.112;6.776;2023-06-24T02:29:39;10.25;;;9.15;;
19867;SDS011;10096;51.112;6.776;2023-06-24T02:32:07;14.00;;;10.90;;
19867;SDS011;10096;51.112;6.776;2023-06-24T02:34:37;14.05;;;11.25;;
19867;SDS011;10096;51.112;6.776;2023-06-24T02:37:08;17.02;;;11.43;;
19867;SDS011;10096;51.112;6.776;2023-06-24T02:39:37;15.57;;;11.73;;
19867;SDS011;10096;51.112;6.776;2023-06-24T02:42:09;13.18;;;11.82;;
19867;SDS011;10096;51.112;6.776;2023-06-24T02:44:37;16.60;;;12.68;;
19867;SDS011;10096;51.112;6.776;2023-06-24T02:47:09;14.40;;;11.80;;
19867;SDS011;10096;51.112;6.776;2023-06-24T02:49:39;14.45;;;12.95;;
19867;SDS011;10096;51.112;6.776;2023-06-24T02:52:07;14.50;;;12.38;;
19867;SDS011;10096;51.112;6.776;2023-06-24T02:54:34;14.57;;;13.18;;
19867;SDS011;10096;51.112;6.776;2023-06-24T02:57:04;15.85;;;13.45;;
19867;SDS011;10096;51.112;6.776;2023-06-24T02:59:33;16.77;;;13.10;;
19867;SDS011;10096;51.112;6.776;2023-06-24T03:02:00;15.50;;;14.00;;
19867;SDS011;10096;51.112;6.776;2023-06-24T03:04:31;15.27;;;13.68;;
19867;SDS011;10096;51.112;6.776;2023-06-24T03:07:01;14.93;;;13.45;;
19867;SDS011;10096;51.112;6.776;2023-06-24T03:09:33;16.65;;;13.80;;
19867;SDS011;10096;51.112;6.776;2023-06-24T03:12:01;15.80;;;14.07;;
19867;SDS011;10096;51.112;6.776;2023-06-24T03:14:29;15.48;;;13.98;;
19867;SDS011;10096;51.112;6.776;2023-06-24T03:16:56;15.02;;;13.43;;
19867;SDS011;10096;51.112;6.776;2023-06-24T03:19:24;15.30;;;13.80;;
19867;SDS011;10096;51.112;6.776;2023-06-24T03:21:51;15.52;;;13.38;;
19867;SDS011;10096;51.112;6.776;2023-06-24T03:24:20;14.65;;;13.15;;
19867;SDS011;10096;51.112;6.776;2023-06-24T03:26:47;16.35;;;13.15;;
19867;SDS011;10096;51.112;6.776;2023-06-24T03:29:21;14.82;;;13.48;;
19867;SDS011;10096;51.112;6.776;2023-06-24T03:31:48;15.48;;;13.38;;
19867;SDS011;10096;51.112;6.776;2023-06-24T03:34:15;14.65;;;13.35;;
19867;SDS011;10096;51.112;6.776;2023-06-24T03:36:43;14.57;;;12.60;;
19867;SDS011;10096;51.112;6.776;2023-06-24T03:39:10;16.13;;;13.23;;
19867;SDS011;10096;51.112;6.776;2023-06-24T03:41:38;14.75;;;13.10;;
19867;SDS011;10096;51.112;6.776;2023-06-24T03:44:06;14.75;;;13.15;;
19867;SDS011;10096;51.112;6.776;2023-06-24T03:46:33;13.88;;;11.90;;
19867;SDS011;10096;51.112;6.776;2023-06-24T03:49:00;14.43;;;12.32;;
19867;SDS011;10096;51.112;6.776;2023-06-24T03:51:27;14.05;;;12.55;;
19867;SDS011;10096;51.112;6.776;2023-06-24T03:53:56;15.25;;;13.68;;
19867;SDS011;10096;51.112;6.776;2023-06-24T03:56:24;15.80;;;13.00;;
19867;SDS011;10096;51.112;6.776;2023-06-24T03:58:52;14.25;;;12.85;;
19867;SDS011;10096;51.112;6.776;2023-06-24T04:01:19;14.18;;;12.57;;
19867;SDS011;10096;51.112;6.776;2023-06-24T04:03:47;14.60;;;13.20;;
19867;SDS011;10096;51.112;6.776;2023-06-24T04:06:16;13.48;;;12.15;;
19867;SDS011;10096;51.112;6.776;2023-06-24T04:08:43;14.77;;;13.48;;
19867;SDS011;10096;51.112;6.776;2023-06-24T04:11:14;14.60;;;12.75;;
19867;SDS011;10096;51.112;6.776;2023-06-24T04:13:44;16.00;;;12.68;;
19867;SDS011;10096;51.112;6.776;2023-06-24T04:16:15;14.20;;;12.75;;
19867;SDS011;10096;51.112;6.776;2023-06-24T04:18:42;13.65;;;12.27;;
19867;SDS011;10096;51.112;6.776;2023-06-24T04:21:10;13.30;;;12.00;;
19867;SDS011;10096;51.112;6.776;2023-06-24T04:23:40;15.25;;;12.50;;
19867;SDS011;10096;51.112;6.776;2023-06-24T04:26:07;13.40;;;11.98;;
19867;SDS011;10096;51.112;6.776;2023-06-24T04:28:35;13.82;;;12.40;;
19867;SDS011;10096;51.112;6.776;2023-06-24T04:31:08;14.30;;;12.98;;
19867;SDS011;10096;51.112;6.776;2023-06-24T04:33:37;14.95;;;12.68;;
19867;SDS011;10096;51.112;6.776;2023-06-24T04:36:04;14.15;;;12.43;;
19867;SDS011;10096;51.112;6.776;2023-06-24T04:38:31;16.10;;;13.60;;
19867;SDS011;10096;51.112;6.776;2023-06-24T04:40:59;14.15;;;12.70;;
19867;SDS011;10096;51.112;6.776;2023-06-24T04:43:26;13.43;;;12.02;;
19867;SDS011;10096;51.112;6.776;2023-06-24T04:45:54;13.77;;;12.38;;
19867;SDS011;10096;51.112;6.776;2023-06-24T04:48:22;13.52;;;12.13;;
19867;SDS011;10096;51.112;6.776;2023-06-24T04:50:51;14.18;;;12.80;;
19867;SDS011;10096;51.112;6.776;2023-06-24T04:53:20;16.85;;;11.43;;
19867;SDS011;10096;51.112;6.776;2023-06-24T04:55:47;13.00;;;11.60;;
19867;SDS011;10096;51.112;6.776;2023-06-24T04:58:16;11.88;;;10.75;;
19867;SDS011;10096;51.112;6.776;2023-06-24T05:00:43;13.02;;;10.82;;
19867;SDS011;10096;51.112;6.776;2023-06-24T05:03:10;13.15;;;11.90;;
19867;SDS011;10096;51.112;6.776;2023-06-24T05:05:40;14.40;;;11.23;;
19867;SDS011;10096;51.112;6.776;2023-06-24T05:08:09;11.68;;;10.48;;
19867;SDS011;10096;51.112;6.776;2023-06-24T05:10:36;13.13;;;11.88;;
19867;SDS011;10096;51.112;6.776;2023-06-24T05:13:04;12.52;;;11.32;;
19867;SDS011;10096;51.112;6.776;2023-06-24T05:15:33;11.38;;;10.48;;
19867;SDS011;10096;51.112;6.776;2023-06-24T05:18:01;11.73;;;10.63;;
19867;SDS011;10096;51.112;6.776;2023-06-24T05:20:28;12.40;;;11.18;;
19867;SDS011;10096;51.112;6.776;2023-06-24T05:22:55;12.75;;;11.45;;
19867;SDS011;10096;51.112;6.776;2023-06-24T05:25:24;11.43;;;10.35;;
19867;SDS011;10096;51.112;6.776;2023-06-24T05:27:51;11.70;;;10.50;;
19867;SDS011;10096;51.112;6.776;2023-06-24T05:30:18;12.35;;;10.85;;
19867;SDS011;10096;51.112;6.776;2023-06-24T05:32:45;11.68;;;10.57;;
19867;SDS011;10096;51.112;6.776;2023-06-24T05:35:13;11.35;;;9.75;;
19867;SDS011;10096;51.112;6.776;2023-06-24T05:37:40;12.55;;;10.45;;
19867;SDS011;10096;51.112;6.776;2023-06-24T05:40:07;10.75;;;9.65;;
19867;SDS011;10096;51.112;6.776;2023-06-24T05:42:37;11.55;;;10.38;;
19867;SDS011;10096;51.112;6.776;2023-06-24T05:45:09;11.45;;;10.35;;
19867;SDS011;10096;51.112;6.776;2023-06-24T05:47:37;10.90;;;9.77;;
19867;SDS011;10096;51.112;6.776;2023-06-24T05:50:04;10.48;;;9.40;;
19867;SDS011;10096;51.112;6.776;2023-06-24T05:52:32;10.07;;;9.15;;
19867;SDS011;10096;51.112;6.776;2023-06-24T05:55:01;12.15;;;10.80;;
19867;SDS011;10096;51.112;6.776;2023-06-24T05:57:30;11.25;;;10.15;;
19867;SDS011;10096;51.112;6.776;2023-06-24T05:59:59;11.45;;;9.85;;
19867;SDS011;10096;51.112;6.776;2023-06-24T06:02:28;11.38;;;10.02;;
19867;SDS011;10096;51.112;6.776;2023-06-24T06:04:55;11.27;;;10.02;;
19867;SDS011;10096;51.112;6.776;2023-06-24T06:07:23;11.02;;;9.80;;
19867;SDS011;10096;51.112;6.776;2023-06-24T06:09:50;12.63;;;10.77;;
19867;SDS011;10096;51.112;6.776;2023-06-24T06:12:17;10.77;;;9.52;;
19867;SDS011;10096;51.112;6.776;2023-06-24T06:14:44;12.95;;;9.88;;
19867;SDS011;10096;51.112;6.776;2023-06-24T06:17:13;11.27;;;9.80;;
19867;SDS011;10096;51.112;6.776;2023-06-24T06:19:40;12.63;;;9.63;;
19867;SDS011;10096;51.112;6.776;2023-06-24T06:22:11;12.48;;;10.18;;
19867;SDS011;10096;51.112;6.776;2023-06-24T06:24:43;12.40;;;10.50;;
19867;SDS011;10096;51.112;6.776;2023-06-24T06:27:10;14.93;;;10.68;;
19867;SDS011;10096;51.112;6.776;2023-06-24T06:29:37;11.70;;;10.60;;
19867;SDS011;10096;51.112;6.776;2023-06-24T06:32:04;15.75;;;11.90;;
19867;SDS011;10096;51.112;6.776;2023-06-24T06:34:35;13.63;;;11.07;;
19867;SDS011;10096;51.112;6.776;2023-06-24T06:37:03;11.35;;;10.25;;
19867;SDS011;10096;51.112;6.776;2023-06-24T06:39:30;13.52;;;11.13;;
19867;SDS011;10096;51.112;6.776;2023-06-24T06:41:57;11.13;;;9.85;;
19867;SDS011;10096;51.112;6.776;2023-06-24T06:44:24;11.00;;;9.77;;
19867;SDS011;10096;51.112;6.776;2023-06-24T06:46:51;11.23;;;10.13;;
19867;SDS011;10096;51.112;6.776;2023-06-24T06:49:19;12.13;;;8.57;;
19867;SDS011;10096;51.112;6.776;2023-06-24T06:51:47;10.52;;;7.90;;
19867;SDS011;10096;51.112;6.776;2023-06-24T06:54:15;9.40;;;8.45;;
19867;SDS011;10096;51.112;6.776;2023-06-24T06:56:42;10.07;;;7.75;;
19867;SDS011;10096;51.112;6.776;2023-06-24T06:59:09;10.07;;;8.88;;
19867;SDS011;10096;51.112;6.776;2023-06-24T07:01:36;13.90;;;9.52;;
19867;SDS011;10096;51.112;6.776;2023-06-24T07:04:04;7.97;;;7.20;;
19867;SDS011;10096;51.112;6.776;2023-06-24T07:06:31;8.00;;;7.20;;
19867;SDS011;10096;51.112;6.776;2023-06-24T07:09:00;8.57;;;7.30;;
19867;SDS011;10096;51.112;6.776;2023-06-24T07:11:29;11.02;;;7.40;;
19867;SDS011;10096;51.112;6.776;2023-06-24T07:13:56;7.60;;;6.90;;
19867;SDS011;10096;51.112;6.776;2023-06-24T07:16:23;9.00;;;6.35;;
19867;SDS011;10096;51.112;6.776;2023-06-24T07:18:50;6.07;;;5.47;;
19867;SDS011;10096;51.112;6.776;2023-06-24T07:21:17;15.30;;;8.95;;
19867;SDS011;10096;51.112;6.776;2023-06-24T07:23:44;7.00;;;5.93;;
19867;SDS011;10096;51.112;6.776;2023-06-24T07:26:13;6.95;;;6.25;;
19867;SDS011;10096;51.112;6.776;2023-06-24T07:28:40;7.10;;;6.07;;
19867;SDS011;10096;51.112;6.776;2023-06-24T07:31:07;6.80;;;6.05;;
19867;SDS011;10096;51.112;6.776;2023-06-24T07:33:34;7.75;;;6.78;;
19867;SDS011;10096;51.112;6.776;2023-06-24T07:36:01;8.05;;;7.28;;
19867;SDS011;10096;51.112;6.776;2023-06-24T07:38:29;12.57;;;7.20;;
19867;SDS011;10096;51.112;6.776;2023-06-24T07:40:56;7.75;;;6.60;;
19867;SDS011;10096;51.112;6.776;2023-06-24T07:43:25;8.70;;;6.80;;
19867;SDS011;10096;51.112;6.776;2023-06-24T07:45:52;6.70;;;5.93;;
19867;SDS011;10096;51.112;6.776;2023-06-24T07:48:19;6.25;;;5.68;;
19867;SDS011;10096;51.112;6.776;2023-06-24T07:50:46;7.20;;;6.18;;
19867;SDS011;10096;51.112;6.776;2023-06-24T07:53:15;6.90;;;6.20;;
19867;SDS011;10096;51.112;6.776;2023-06-24T07:55:43;6.60;;;5.40;;
19867;SDS011;10096;51.112;6.776;2023-06-24T07:58:10;6.70;;;6.10;;
19867;SDS011;10096;51.112;6.776;2023-06-24T08:00:38;8.55;;;6.25;;
19867;SDS011;10096;51.112;6.776;2023-06-24T08:03:05;6.90;;;6.13;;
19867;SDS011;10096;51.112;6.776;2023-06-24T08:05:32;7.13;;;6.53;;
19867;SDS011;10096;51.112;6.776;2023-06-24T08:08:00;6.05;;;5.53;;
19867;SDS011;10096;51.112;6.776;2023-06-24T08:10:27;6.32;;;5.75;;
19867;SDS011;10096;51.112;6.776;2023-06-24T08:12:54;10.98;;;6.22;;
19867;SDS011;10096;51.112;6.776;2023-06-24T08:15:24;8.38;;;6.85;;
19867;SDS011;10096;51.112;6.776;2023-06-24T08:17:53;7.60;;;6.15;;
19867;SDS011;10096;51.112;6.776;2023-06-24T08:20:21;7.22;;;6.28;;
19867;SDS011;10096;51.112;6.776;2023-06-24T08:22:48;8.68;;;6.65;;
19867;SDS011;10096;51.112;6.776;2023-06-24T08:25:16;8.88;;;8.02;;
19867;SDS011;10096;51.112;6.776;2023-06-24T08:27:43;9.70;;;7.95;;
19867;SDS011;10096;51.112;6.776;2023-06-24T08:30:12;8.35;;;6.97;;
19867;SDS011;10096;51.112;6.776;2023-06-24T08:32:40;9.10;;;7.85;;
19867;SDS011;10096;51.112;6.776;2023-06-24T08:35:09;8.95;;;7.30;;
19867;SDS011;10096;51.112;6.776;2023-06-24T08:37:37;8.55;;;7.60;;
19867;SDS011;10096;51.112;6.776;2023-06-24T08:40:06;8.75;;;7.88;;
19867;SDS011;10096;51.112;6.776;2023-06-24T08:42:39;9.23;;;8.43;;
19867;SDS011;10096;51.112;6.776;2023-06-24T08:45:08;8.30;;;7.40;;
19867;SDS011;10096;51.112;6.776;2023-06-24T08:47:35;8.75;;;7.85;;
19867;SDS011;10096;51.112;6.776;2023-06-24T08:50:04;8.65;;;7.85;;
19867;SDS011;10096;51.112;6.776;2023-06-24T08:52:36;9.35;;;8.48;;
19867;SDS011;10096;51.112;6.776;2023-06-24T08:55:04;18.48;;;11.85;;
19867;SDS011;10096;51.112;6.776;2023-06-24T08:57:36;9.32;;;8.43;;
19867;SDS011;10096;51.112;6.776;2023-06-24T09:00:04;10.85;;;9.43;;
19867;SDS011;10096;51.112;6.776;2023-06-24T09:02:35;8.02;;;7.32;;
19867;SDS011;10096;51.112;6.776;2023-06-24T09:05:03;9.65;;;8.65;;
19867;SDS011;10096;51.112;6.776;2023-06-24T09:07:31;8.80;;;7.90;;
19867;SDS011;10096;51.112;6.776;2023-06-24T09:09:59;9.50;;;8.55;;
19867;SDS011;10096;51.112;6.776;2023-06-24T09:12:27;9.95;;;9.00;;
19867;SDS011;10096;51.112;6.776;2023-06-24T09:15:01;9.18;;;8.02;;
19867;SDS011;10096;51.112;6.776;2023-06-24T09:17:41;11.00;;;9.93;;
19867;SDS011;10096;51.112;6.776;2023-06-24T09:20:29;8.95;;;8.05;;
19867;SDS011;10096;51.112;6.776;2023-06-24T09:22:58;10.27;;;9.02;;
19867;SDS011;10096;51.112;6.776;2023-06-24T09:25:27;11.30;;;10.25;;
19867;SDS011;10096;51.112;6.776;2023-06-24T09:27:56;10.68;;;8.82;;
19867;SDS011;10096;51.112;6.776;2023-06-24T09:30:25;10.05;;;9.05;;
19867;SDS011;10096;51.112;6.776;2023-06-24T09:32:55;9.77;;;8.38;;
19867;SDS011;10096;51.112;6.776;2023-06-24T09:35:22;11.57;;;9.52;;
19867;SDS011;10096;51.112;6.776;2023-06-24T09:37:52;12.75;;;10.05;;
19867;SDS011;10096;51.112;6.776;2023-06-24T09:40:23;8.60;;;7.70;;
19867;SDS011;10096;51.112;6.776;2023-06-24T09:42:52;10.48;;;8.40;;
19867;SDS011;10096;51.112;6.776;2023-06-24T09:45:21;20.10;;;12.50;;
19867;SDS011;10096;51.112;6.776;2023-06-24T09:47:50;10.02;;;7.90;;
19867;SDS011;10096;51.112;6.776;2023-06-24T09:50:17;8.75;;;7.88;;
19867;SDS011;10096;51.112;6.776;2023-06-24T09:52:45;11.80;;;8.98;;
19867;SDS011;10096;51.112;6.776;2023-06-24T09:55:14;9.43;;;8.52;;
19867;SDS011;10096;51.112;6.776;2023-06-24T09:57:44;10.18;;;8.43;;
19867;SDS011;10096;51.112;6.776;2023-06-24T10:00:14;10.50;;;9.00;;
19867;SDS011;10096;51.112;6.776;2023-06-24T10:02:44;10.73;;;8.93;;
19867;SDS011;10096;51.112;6.776;2023-06-24T10:05:12;10.25;;;8.43;;
19867;SDS011;10096;51.112;6.776;2023-06-24T10:07:40;8.85;;;7.97;;
19867;SDS011;10096;51.112;6.776;2023-06-24T10:10:08;8.70;;;7.50;;
19867;SDS011;10096;51.112;6.776;2023-06-24T10:12:36;16.50;;;10.80;;
19867;SDS011;10096;51.112;6.776;2023-06-24T10:15:05;10.23;;;8.07;;
19867;SDS011;10096;51.112;6.776;2023-06-24T10:17:34;11.98;;;8.43;;
19867;SDS011;10096;51.112;6.776;2023-06-24T10:20:03;9.18;;;8.27;;
19867;SDS011;10096;51.112;6.776;2023-06-24T10:22:33;8.15;;;6.90;;
19867;SDS011;10096;51.112;6.776;2023-06-24T10:25:01;7.43;;;6.68;;
19867;SDS011;10096;51.112;6.776;2023-06-24T10:27:32;9.13;;;6.15;;
19867;SDS011;10096;51.112;6.776;2023-06-24T10:30:07;8.48;;;7.13;;
19867;SDS011;10096;51.112;6.776;2023-06-24T10:32:45;7.57;;;6.88;;
19867;SDS011;10096;51.112;6.776;2023-06-24T10:35:22;7.03;;;5.65;;
19867;SDS011;10096;51.112;6.776;2023-06-24T10:37:54;7.22;;;6.00;;
19867;SDS011;10096;51.112;6.776;2023-06-24T10:40:35;7.13;;;6.43;;
19867;SDS011;10096;51.112;6.776;2023-06-24T10:43:22;7.85;;;6.55;;
19867;SDS011;10096;51.112;6.776;2023-06-24T10:45:55;7.43;;;6.63;;
19867;SDS011;10096;51.112;6.776;2023-06-24T10:48:24;9.07;;;8.27;;
19867;SDS011;10096;51.112;6.776;2023-06-24T10:50:52;8.70;;;6.35;;
19867;SDS011;10096;51.112;6.776;2023-06-24T10:53:21;12.48;;;8.70;;
19867;SDS011;10096;51.112;6.776;2023-06-24T10:55:48;7.22;;;6.28;;
19867;SDS011;10096;51.112;6.776;2023-06-24T10:58:15;6.50;;;5.53;;
19867;SDS011;10096;51.112;6.776;2023-06-24T11:00:46;6.07;;;5.38;;
19867;SDS011;10096;51.112;6.776;2023-06-24T11:03:15;8.63;;;6.00;;
19867;SDS011;10096;51.112;6.776;2023-06-24T11:05:45;6.70;;;5.47;;
19867;SDS011;10096;51.112;6.776;2023-06-24T11:08:14;8.23;;;5.97;;
19867;SDS011;10096;51.112;6.776;2023-06-24T11:10:43;6.28;;;4.55;;
19867;SDS011;10096;51.112;6.776;2023-06-24T11:13:11;6.18;;;5.28;;
19867;SDS011;10096;51.112;6.776;2023-06-24T11:15:38;6.93;;;5.75;;
19867;SDS011;10096;51.112;6.776;2023-06-24T11:18:09;11.43;;;6.45;;
19867;SDS011;10096;51.112;6.776;2023-06-24T11:20:37;5.63;;;5.00;;
19867;SDS011;10096;51.112;6.776;2023-06-24T11:23:08;6.10;;;4.88;;
19867;SDS011;10096;51.112;6.776;2023-06-24T11:25:38;5.95;;;5.35;;
19867;SDS011;10096;51.112;6.776;2023-06-24T11:28:15;5.63;;;4.88;;
19867;SDS011;10096;51.112;6.776;2023-06-24T11:30:43;5.35;;;4.70;;
19867;SDS011;10096;51.112;6.776;2023-06-24T11:33:10;5.97;;;5.00;;
19867;SDS011;10096;51.112;6.776;2023-06-24T11:35:37;5.20;;;4.70;;
19867;SDS011;10096;51.112;6.776;2023-06-24T11:38:04;6.18;;;5.50;;
19867;SDS011;10096;51.112;6.776;2023-06-24T11:40:33;6.13;;;5.63;;
19867;SDS011;10096;51.112;6.776;2023-06-24T11:43:03;6.03;;;5.43;;
19867;SDS011;10096;51.112;6.776;2023-06-24T11:45:38;6.05;;;5.38;;
19867;SDS011;10096;51.112;6.776;2023-06-24T11:48:05;6.00;;;5.50;;
19867;SDS011;10096;51.112;6.776;2023-06-24T11:50:33;6.55;;;5.28;;
19867;SDS011;10096;51.112;6.776;2023-06-24T11:53:02;6.47;;;4.80;;
19867;SDS011;10096;51.112;6.776;2023-06-24T11:55:30;5.90;;;4.95;;
19867;SDS011;10096;51.112;6.776;2023-06-24T11:57:59;5.60;;;5.07;;
19867;SDS011;10096;51.112;6.776;2023-06-24T12:00:30;5.32;;;4.80;;
19867;SDS011;10096;51.112;6.776;2023-06-24T12:03:01;10.32;;;8.23;;
19867;SDS011;10096;51.112;6.776;2023-06-24T12:05:31;5.97;;;5.38;;
19867;SDS011;10096;51.112;6.776;2023-06-24T12:08:02;5.03;;;4.40;;
19867;SDS011;10096;51.112;6.776;2023-06-24T12:10:46;6.32;;;4.45;;
19867;SDS011;10096;51.112;6.776;2023-06-24T12:13:14;5.28;;;4.47;;
19867;SDS011;10096;51.112;6.776;2023-06-24T12:15:41;5.47;;;4.70;;
19867;SDS011;10096;51.112;6.776;2023-06-24T12:18:08;4.93;;;4.43;;
19867;SDS011;10096;51.112;6.776;2023-06-24T12:20:35;5.22;;;4.28;;
19867;SDS011;10096;51.112;6.776;2023-06-24T12:23:02;5.97;;;5.03;;
19867;SDS011;10096;51.112;6.776;2023-06-24T12:25:33;5.63;;;5.13;;
19867;SDS011;10096;51.112;6.776;2023-06-24T12:28:01;5.03;;;4.53;;
19867;SDS011;10096;51.112;6.776;2023-06-24T12:30:28;5.57;;;4.68;;
19867;SDS011;10096;51.112;6.776;2023-06-24T12:32:56;4.90;;;4.40;;
19867;SDS011;10096;51.112;6.776;2023-06-24T12:35:24;6.50;;;4.60;;
19867;SDS011;10096;51.112;6.776;2023-06-24T12:37:51;4.85;;;3.60;;
19867;SDS011;10096;51.112;6.776;2023-06-24T12:40:19;3.97;;;3.55;;
19867;SDS011;10096;51.112;6.776;2023-06-24T12:42:47;5.07;;;3.22;;
19867;SDS011;10096;51.112;6.776;2023-06-24T12:45:15;4.85;;;4.20;;
19867;SDS011;10096;51.112;6.776;2023-06-24T12:47:43;3.53;;;3.22;;
19867;SDS011;10096;51.112;6.776;2023-06-24T12:50:10;8.50;;;5.38;;
19867;SDS011;10096;51.112;6.776;2023-06-24T12:52:37;10.27;;;6.70;;
19867;SDS011;10096;51.112;6.776;2023-06-24T12:55:05;5.40;;;3.83;;
19867;SDS011;10096;51.112;6.776;2023-06-24T12:57:33;3.90;;;3.50;;
19867;SDS011;10096;51.112;6.776;2023-06-24T13:00:01;5.22;;;3.50;;
19867;SDS011;10096;51.112;6.776;2023-06-24T13:02:31;4.38;;;3.30;;
19867;SDS011;10096;51.112;6.776;2023-06-24T13:04:58;4.47;;;3.63;;
19867;SDS011;10096;51.112;6.776;2023-06-24T13:07:26;5.25;;;3.63;;
19867;SDS011;10096;51.112;6.776;2023-06-24T13:09:53;4.25;;;3.78;;
19867;SDS011;10096;51.112;6.776;2023-06-24T13:12:20;3.83;;;3.30;;
19867;SDS011;10096;51.112;6.776;2023-06-24T13:14:47;3.67;;;3.28;;
19867;SDS011;10096;51.112;6.776;2023-06-24T13:17:15;3.80;;;3.28;;
19867;SDS011;10096;51.112;6.776;2023-06-24T13:19:43;3.60;;;3.30;;
19867;SDS011;10096;51.112;6.776;2023-06-24T13:22:11;8.45;;;5.97;;
19867;SDS011;10096;51.112;6.776;2023-06-24T13:24:38;6.35;;;4.57;;
19867;SDS011;10096;51.112;6.776;2023-06-24T13:27:06;4.65;;;4.25;;
19867;SDS011;10096;51.112;6.776;2023-06-24T13:29:36;3.97;;;3.58;;
19867;SDS011;10096;51.112;6.776;2023-06-24T13:32:03;3.88;;;3.53;;
19867;SDS011;10096;51.112;6.776;2023-06-24T13:34:31;3.78;;;3.38;;
19867;SDS011;10096;51.112;6.776;2023-06-24T13:36:59;3.53;;;3.22;;
19867;SDS011;10096;51.112;6.776;2023-06-24T13:39:28;6.18;;;4.15;;
19867;SDS011;10096;51.112;6.776;2023-06-24T13:41:56;10.80;;;4.57;;
19867;SDS011;10096;51.112;6.776;2023-06-24T13:44:24;10.15;;;4.78;;
19867;SDS011;10096;51.112;6.776;2023-06-24T13:46:51;6.47;;;3.58;;
19867;SDS011;10096;51.112;6.776;2023-06-24T13:49:18;3.42;;;2.97;;
19867;SDS011;10096;51.112;6.776;2023-06-24T13:51:45;4.50;;;3.80;;
19867;SDS011;10096;51.112;6.776;2023-06-24T13:54:14;4.50;;;4.10;;
19867;SDS011;10096;51.112;6.776;2023-06-24T13:56:41;4.13;;;3.30;;
19867;SDS011;10096;51.112;6.776;2023-06-24T13:59:08;4.63;;;3.40;;
19867;SDS011;10096;51.112;6.776;2023-06-24T14:01:36;3.95;;;2.97;;
19867;SDS011;10096;51.112;6.776;2023-06-24T14:04:04;3.70;;;3.35;;
19867;SDS011;10096;51.112;6.776;2023-06-24T14:06:31;10.05;;;3.50;;
19867;SDS011;10096;51.112;6.776;2023-06-24T14:08:58;3.45;;;3.15;;
19867;SDS011;10096;51.112;6.776;2023-06-24T14:11:27;4.75;;;3.58;;
19867;SDS011;10096;51.112;6.776;2023-06-24T14:13:55;3.88;;;3.22;;
19867;SDS011;10096;51.112;6.776;2023-06-24T14:16:22;3.83;;;3.53;;
19867;SDS011;10096;51.112;6.776;2023-06-24T14:18:51;4.35;;;3.97;;
19867;SDS011;10096;51.112;6.776;2023-06-24T14:21:19;3.50;;;3.17;;
19867;SDS011;10096;51.112;6.776;2023-06-24T14:23:49;4.25;;;2.80;;
19867;SDS011;10096;51.112;6.776;2023-06-24T14:26:16;4.35;;;3.95;;
19867;SDS011;10096;51.112;6.776;2023-06-24T14:28:45;3.42;;;3.00;;
19867;SDS011;10096;51.112;6.776;2023-06-24T14:31:13;4.70;;;4.30;;
19867;SDS011;10096;51.112;6.776;2023-06-24T14:33:40;3.30;;;2.95;;
19867;SDS011;10096;51.112;6.776;2023-06-24T14:36:08;3.67;;;3.28;;
19867;SDS011;10096;51.112;6.776;2023-06-24T14:38:38;3.33;;;3.03;;
19867;SDS011;10096;51.112;6.776;2023-06-24T14:41:10;3.45;;;3.10;;
19867;SDS011;10096;51.112;6.776;2023-06-24T14:43:37;3.30;;;2.97;;
19867;SDS011;10096;51.112;6.776;2023-06-24T14:46:05;7.00;;;4.93;;